Time;durP1;ratioP1;P1;durP2;ratioP2;P2;SDS_P1;SDS_P2;PMS_P1;PMS_P2;Temp;Humidity;BMP_temperature;BMP_pressure;BME280_temperature;BME280_humidity;BME280_pressure;Samples;Min_cycle;Max_cycle;Signal;HPM_P1;HPM_P2
2023/01/09 00:03:45;;;;;;;4.93;4.43;;;9.70;59.50;;;8.52;61.70;99697.88;12250389;19;20015;-82
2023/01/09 00:07:47;;;;;;;6.05;5.05;;;9.70;59.40;;;8.60;61.70;99706.03;12249939;19;20010;-82
2023/01/09 00:11:50;;;;;;;6.63;5.00;;;9.70;59.40;;;8.49;61.47;99688.50;12249096;19;20482;-82
2023/01/09 00:15:51;;;;;;;7.50;5.00;;;9.60;59.40;;;8.49;61.66;99690.28;12249789;19;20339;-82
2023/01/09 00:19:53;;;;;;;6.20;5.03;;;9.80;59.50;;;8.48;61.57;99701.59;12247844;19;20057;-82
2023/01/09 00:23:55;;;;;;;6.25;5.15;;;9.60;59.40;;;8.35;61.61;99681.53;12246542;19;20014;-82
2023/01/09 00:27:57;;;;;;;6.43;4.78;;;9.50;59.40;;;8.35;61.79;99684.16;12250549;19;20007;-82
2023/01/09 00:31:59;;;;;;;5.82;4.85;;;9.50;59.40;;;8.28;61.77;99682.84;12246298;19;20018;-82
2023/01/09 00:36:01;;;;;;;5.07;4.53;;;9.50;59.40;;;8.33;61.59;99680.78;12247323;19;20354;-82
2023/01/09 00:40:03;;;;;;;5.63;4.72;;;9.50;59.50;;;8.35;61.61;99685.91;12249908;19;20444;-82
2023/01/09 00:44:15;;;;;;;5.60;4.63;;;9.50;59.50;;;8.16;61.53;99665.44;12244737;19;20059;-82
2023/01/09 00:48:25;;;;;;;5.60;4.32;;;9.40;59.30;;;8.22;61.65;99672.00;12249042;19;20027;-82
2023/01/09 00:52:31;;;;;;;5.15;4.65;;;9.40;59.20;;;8.14;61.66;99657.72;12246262;19;20021;-82
2023/01/09 00:56:34;;;;;;;5.20;4.35;;;9.30;59.00;;;7.95;61.70;99631.19;12248062;19;20349;-82
2023/01/09 01:00:37;;;;;;;4.80;4.25;;;9.30;59.00;;;8.09;61.65;99664.13;12248397;19;20022;-82
2023/01/09 01:09:00;;;;;;;5.22;4.72;;;9.10;58.80;;;7.96;61.53;99661.44;12247728;19;20507;-82
2023/01/09 01:13:02;;;;;;;5.05;4.28;;;9.10;58.80;;;7.90;61.57;99660.06;12246218;19;20010;-82
2023/01/09 01:17:05;;;;;;;5.30;3.88;;;9.00;58.80;;;7.67;61.44;99629.44;12247482;19;20040;-82
2023/01/09 01:21:09;;;;;;;5.18;4.05;;;9.10;58.80;;;7.75;61.31;99646.25;12247024;19;20022;-82
2023/01/09 01:25:13;;;;;;;5.45;4.35;;;8.90;58.80;;;7.68;61.50;99655.34;12242916;19;20014;-82
2023/01/09 01:29:16;;;;;;;5.93;4.53;;;8.80;59.00;;;7.62;61.46;99634.94;12246038;19;20441;-82
2023/01/09 01:33:18;;;;;;;4.70;4.05;;;8.70;59.10;;;7.68;61.41;99644.09;12244764;19;20006;-82
2023/01/09 01:37:21;;;;;;;4.55;3.85;;;8.70;59.10;;;7.40;61.47;99591.22;12247664;19;20031;-82
2023/01/09 01:41:29;;;;;;;7.10;5.20;;;8.70;59.20;;;7.62;61.48;99629.72;12246242;19;20015;-82
2023/01/09 01:45:33;;;;;;;5.32;4.50;;;8.70;59.40;;;7.59;61.51;99627.31;12242605;19;20548;-82
2023/01/09 01:49:35;;;;;;;6.80;5.18;;;8.70;59.50;;;7.48;61.60;99603.72;12247551;19;20011;-82
2023/01/09 01:53:44;;;;;;;5.70;4.63;;;8.90;59.60;;;7.46;61.53;99616.00;12242591;19;20093;-82
2023/01/09 01:57:54;;;;;;;5.32;4.70;;;8.60;59.40;;;7.50;61.49;99610.50;12245327;19;20019;-82
2023/01/09 02:01:59;;;;;;;6.72;4.80;;;8.60;59.40;;;7.42;61.62;99594.56;12243472;19;20018;-82
2023/01/09 02:06:03;;;;;;;4.82;4.05;;;8.60;59.40;;;7.45;61.73;99598.72;12245071;19;20026;-82
2023/01/09 02:10:06;;;;;;;5.65;4.68;;;8.60;59.40;;;7.36;61.62;99602.72;12244028;19;20054;-82
2023/01/09 02:14:08;;;;;;;5.15;4.38;;;8.50;59.20;;;7.27;61.48;99598.91;12242677;19;20007;-82
2023/01/09 02:18:33;;;;;;;4.85;3.65;;;8.50;59.10;;;7.07;61.32;99588.88;12243117;19;20090;-82
2023/01/09 02:22:42;;;;;;;4.72;4.07;;;8.40;59.00;;;7.18;61.56;99606.41;12242044;19;20019;-82
2023/01/09 02:27:23;;;;;;;5.03;4.22;;;8.30;59.00;;;7.12;61.44;99612.78;12246190;19;20356;-82
2023/01/09 02:31:48;;;;;;;4.60;4.18;;;8.30;59.00;;;6.95;61.42;99574.88;12242786;19;20003;-82
2023/01/09 02:36:17;;;;;;;4.57;3.92;;;8.30;59.20;;;7.05;61.46;99595.94;12244416;19;20026;-82
2023/01/09 02:40:30;;;;;;;5.32;4.20;;;8.20;59.20;;;6.93;61.60;99573.28;12247424;19;20047;-82
2023/01/09 02:44:35;;;;;;;5.47;4.38;;;8.20;59.20;;;7.00;61.68;99592.78;12250549;19;20021;-81
2023/01/09 02:48:37;;;;;;;5.82;4.57;;;8.10;59.30;;;6.83;61.62;99566.06;12250657;19;20028;-82
2023/01/09 02:53:16;;;;;;;7.78;5.40;;;8.10;59.40;;;6.96;61.68;99594.69;12247475;19;20027;-82
2023/01/09 02:57:58;;;;;;;6.25;4.88;;;8.10;59.70;;;6.95;61.80;99593.03;12255822;19;20003;-81
2023/01/09 03:02:00;;;;;;;6.07;4.70;;;8.10;59.90;;;7.01;61.82;99597.03;12254924;19;20049;-82
2023/01/09 03:06:09;;;;;;;7.03;5.07;;;8.10;59.80;;;7.02;61.90;99583.09;12254692;19;20019;-82
2023/01/09 03:10:37;;;;;;;5.63;4.78;;;8.10;59.70;;;7.01;61.76;99574.50;12253639;19;20014;-82
2023/01/09 03:14:45;;;;;;;4.68;4.25;;;8.10;59.70;;;7.03;61.63;99570.06;12247974;19;20011;-81
2023/01/09 03:18:50;;;;;;;6.53;4.88;;;8.20;59.60;;;6.84;61.74;99533.16;12253544;19;20017;-81
2023/01/09 03:23:05;;;;;;;6.97;5.30;;;8.20;59.60;;;7.00;61.85;99554.66;12251936;19;20014;-81
2023/01/09 03:27:08;;;;;;;5.35;4.70;;;8.20;59.50;;;6.99;61.66;99552.97;12253107;19;20022;-82
2023/01/09 03:31:10;;;;;;;6.90;4.80;;;8.30;59.50;;;6.94;61.66;99544.66;12253654;19;20082;-82
2023/01/09 03:35:12;;;;;;;6.32;4.78;;;8.20;59.40;;;6.85;61.79;99535.63;12247345;19;20015;-82
2023/01/09 03:39:13;;;;;;;6.57;4.93;;;8.10;59.40;;;6.92;61.89;99536.13;12253421;19;20011;-81
2023/01/09 03:43:15;;;;;;;5.47;4.55;;;8.20;59.50;;;6.84;61.85;99527.97;12250643;19;21001;-82
2023/01/09 03:47:16;;;;;;;5.57;4.40;;;8.10;59.80;;;6.92;61.83;99532.69;12252291;19;20011;-82
2023/01/09 03:51:18;;;;;;;6.07;4.40;;;8.10;59.40;;;6.81;61.78;99507.38;12251069;19;20015;-82
2023/01/09 03:55:20;;;;;;;6.57;4.53;;;8.10;59.50;;;6.85;61.94;99508.84;12247730;19;20102;-81
2023/01/09 03:59:24;;;;;;;5.65;4.22;;;8.10;59.60;;;6.89;61.74;99522.50;12251796;19;20465;-81
2023/01/09 04:03:26;;;;;;;5.97;4.50;;;8.10;59.70;;;6.87;61.77;99515.63;12248966;19;20014;-81
2023/01/09 04:07:28;;;;;;;6.45;4.93;;;8.10;59.70;;;6.70;61.95;99487.25;12251851;19;20007;-82
2023/01/09 04:11:30;;;;;;;5.75;4.53;;;8.20;59.80;;;6.82;61.96;99506.44;12248850;19;20425;-82
2023/01/09 04:15:31;;;;;;;5.78;4.55;;;8.10;59.90;;;6.75;62.01;99489.56;12247844;19;20006;-82
2023/01/09 04:19:33;;;;;;;5.05;4.22;;;8.00;60.00;;;6.87;62.03;99505.25;12250853;19;20041;-82
2023/01/09 04:23:35;;;;;;;6.10;4.32;;;8.00;60.00;;;6.82;62.02;99509.03;12247551;19;20040;-82
2023/01/09 04:27:37;;;;;;;6.30;4.85;;;8.10;60.10;;;6.91;62.15;99513.66;12249580;19;20014;-81
2023/01/09 04:31:39;;;;;;;6.25;4.93;;;8.30;60.50;;;6.93;62.18;99508.41;12250839;19;20078;-82
2023/01/09 04:35:40;;;;;;;7.18;5.15;;;8.10;60.50;;;6.92;62.17;99499.78;12248743;19;20011;-81
2023/01/09 04:39:42;;;;;;;8.70;5.32;;;8.10;60.60;;;6.96;62.02;99500.44;12250343;19;20484;-82
2023/01/09 04:43:44;;;;;;;8.77;5.53;;;8.20;60.80;;;6.74;62.00;99461.97;12247777;19;20475;-82
2023/01/09 04:47:46;;;;;;;8.68;6.72;;;8.20;60.90;;;6.69;62.18;99440.66;12248994;19;20536;-82
2023/01/09 04:51:48;;;;;;;12.65;6.65;;;8.20;61.20;;;6.96;62.09;99485.69;12247129;19;20750;-82
2023/01/09 04:55:49;;;;;;;8.85;5.97;;;8.50;61.40;;;7.01;62.22;99475.88;12247474;19;20025;-82
2023/01/09 04:59:51;;;;;;;7.90;5.25;;;8.30;61.30;;;7.00;62.36;99473.38;12249522;19;20031;-81
2023/01/09 05:03:53;;;;;;;8.50;5.90;;;8.30;61.30;;;6.84;62.34;99439.75;12241839;19;20482;-82
2023/01/09 05:07:55;;;;;;;8.73;5.85;;;8.30;61.20;;;7.12;62.43;99476.97;12247609;19;20011;-81
2023/01/09 05:11:57;;;;;;;6.85;5.65;;;8.40;61.40;;;7.01;62.38;99451.69;12246280;19;20484;-82
2023/01/09 05:15:58;;;;;;;7.90;5.45;;;8.40;61.70;;;7.20;62.54;99480.78;12249905;19;20046;-81
2023/01/09 05:20:00;;;;;;;8.57;6.10;;;8.50;61.60;;;7.22;62.23;99478.09;12249708;19;20078;-82
2023/01/09 05:24:02;;;;;;;7.65;5.55;;;8.50;61.60;;;7.32;62.37;99481.78;12242822;19;20010;-82
2023/01/09 05:28:04;;;;;;;6.72;5.40;;;8.50;61.80;;;7.36;62.31;99472.03;12247216;19;20034;-82
2023/01/09 05:32:05;;;;;;;7.53;5.38;;;8.60;61.90;;;7.30;62.38;99455.91;12245475;19;20011;-81
2023/01/09 05:36:07;;;;;;;8.23;6.25;;;8.60;62.00;;;7.39;62.55;99470.09;12243238;19;20018;-81
2023/01/09 05:40:10;;;;;;;7.25;5.22;;;8.70;62.30;;;7.37;62.57;99460.72;12245680;19;20014;-81
2023/01/09 05:44:12;;;;;;;6.07;4.97;;;8.70;62.40;;;7.47;62.61;99474.81;12244303;19;20030;-81
2023/01/09 05:48:14;;;;;;;7.03;5.30;;;8.70;62.40;;;7.56;62.50;99463.00;12246219;19;20036;-81
2023/01/09 05:52:15;;;;;;;7.13;5.38;;;8.80;62.50;;;7.58;62.58;99461.13;12243389;19;20035;-81
2023/01/09 05:56:17;;;;;;;6.50;5.30;;;8.80;62.70;;;7.56;62.52;99453.47;12246688;19;20014;-81
2023/01/09 06:00:19;;;;;;;7.43;5.18;;;8.90;62.90;;;7.46;62.57;99422.03;12244955;19;20025;-81
2023/01/09 06:04:21;;;;;;;8.93;5.75;;;8.90;62.80;;;7.68;62.69;99451.84;12244285;19;20006;-81
2023/01/09 06:08:23;;;;;;;9.90;5.30;;;9.00;62.80;;;7.62;62.82;99437.47;12244370;19;20028;-81
2023/01/09 06:12:25;;;;;;;6.47;5.35;;;9.00;62.80;;;7.51;62.76;99413.97;12244739;19;20018;-81
2023/01/09 06:16:26;;;;;;;7.20;5.40;;;9.00;63.10;;;7.82;62.78;99456.16;12252373;19;20015;-81
2023/01/09 06:20:28;;;;;;;9.23;6.40;;;9.00;62.90;;;7.86;62.66;99449.84;12255400;19;20031;-82
2023/01/09 06:24:30;;;;;;;7.43;5.35;;;9.10;63.60;;;7.88;62.65;99447.94;12252992;19;20014;-82
2023/01/09 06:28:32;;;;;;;7.57;5.75;;;9.10;63.20;;;7.91;62.68;99448.59;12255765;19;20010;-82
2023/01/09 06:32:34;;;;;;;6.22;4.78;;;9.10;63.40;;;7.57;62.70;99390.19;12255022;19;20461;-82
2023/01/09 06:36:35;;;;;;;8.25;5.75;;;9.20;63.40;;;7.97;62.88;99442.16;12253767;19;20014;-82
2023/01/09 06:40:37;;;;;;;6.97;5.10;;;9.20;64.00;;;8.01;62.82;99438.41;12255258;19;20010;-82
2023/01/09 06:44:39;;;;;;;7.70;5.40;;;9.30;63.60;;;7.99;63.00;99424.69;12252025;19;20021;-82
2023/01/09 06:48:41;;;;;;;7.50;5.47;;;9.30;63.60;;;7.92;62.79;99403.47;12257754;19;20074;-82
2023/01/09 06:52:43;;;;;;;5.47;4.70;;;9.30;63.80;;;7.86;62.83;99379.66;12253774;19;20022;-82
2023/01/09 06:56:45;;;;;;;9.50;5.55;;;9.30;63.50;;;8.10;62.81;99426.59;12253727;19;20380;-82
2023/01/09 07:00:48;;;;;;;11.90;6.60;;;9.40;63.60;;;8.14;62.99;99417.66;12255432;19;20014;-82
2023/01/09 07:04:50;;;;;;;7.03;5.50;;;9.40;63.60;;;8.13;62.98;99408.22;12251006;19;20011;-82
2023/01/09 07:08:51;;;;;;;9.30;5.50;;;9.40;63.60;;;8.15;63.08;99408.91;12252220;19;20014;-83
2023/01/09 07:12:53;;;;;;;6.55;4.93;;;9.40;63.70;;;8.15;62.97;99398.50;12253061;19;20010;-83
2023/01/09 07:16:55;;;;;;;7.22;5.55;;;9.50;63.60;;;8.20;63.10;99399.88;12250304;19;20010;-82
2023/01/09 07:20:56;;;;;;;8.63;5.85;;;9.60;63.50;;;8.25;63.07;99406.53;12254685;19;20509;-83
2023/01/09 07:24:58;;;;;;;8.05;5.20;;;9.50;63.40;;;8.17;62.95;99386.25;12251862;19;20014;-83
2023/01/09 07:29:00;;;;;;;6.60;5.13;;;9.70;63.40;;;8.20;62.86;99392.06;12253671;19;20376;-82
2023/01/09 07:33:01;;;;;;;8.07;5.65;;;9.50;63.10;;;8.18;63.01;99393.09;12252432;19;20039;-83
2023/01/09 07:37:03;;;;;;;5.53;4.50;;;9.50;63.20;;;8.18;63.04;99388.75;12253161;19;20019;-83
2023/01/09 07:41:04;;;;;;;7.15;5.43;;;9.50;63.20;;;8.22;63.01;99396.34;12251829;19;20398;-84
2023/01/09 07:45:07;;;;;;;8.10;5.60;;;9.50;63.40;;;8.07;63.09;99364.41;12247533;19;20011;-83
2023/01/09 07:49:09;;;;;;;8.30;6.00;;;9.50;63.30;;;8.34;63.17;99408.53;12251218;19;20023;-84
2023/01/09 07:53:11;;;;;;;8.15;5.53;;;9.70;63.60;;;8.25;63.03;99404.78;12249473;19;20090;-84
2023/01/09 07:57:13;;;;;;;6.50;5.13;;;9.70;63.50;;;8.33;63.01;99410.28;12251021;19;20088;-83
2023/01/09 08:01:15;;;;;;;9.93;5.90;;;9.60;63.50;;;8.25;62.97;99403.94;12249662;19;20014;-84
2023/01/09 08:05:17;;;;;;;10.80;6.72;;;9.70;63.80;;;8.36;63.21;99423.09;12248715;19;20018;-84
2023/01/09 08:09:19;;;;;;;8.70;6.10;;;9.60;64.50;;;8.45;63.24;99446.84;12250023;19;20066;-84
2023/01/09 08:13:21;;;;;;;9.23;6.95;;;9.70;64.20;;;8.41;63.08;99441.84;12247308;19;20006;-84
2023/01/09 08:17:23;;;;;;;9.65;6.70;;;9.70;64.90;;;8.46;63.21;99441.56;12249490;19;20390;-83
2023/01/09 08:21:25;;;;;;;13.18;8.40;;;9.70;64.50;;;8.38;63.37;99436.00;12250692;19;20014;-84
2023/01/09 08:25:27;;;;;;;10.68;7.45;;;9.70;65.70;;;8.45;63.40;99431.25;12242640;19;20014;-84
2023/01/09 08:29:29;;;;;;;9.25;6.30;;;9.70;65.20;;;8.49;63.47;99433.53;12249952;19;20010;-84
2023/01/09 08:33:31;;;;;;;9.48;6.75;;;9.70;65.00;;;8.10;63.22;99359.84;12245516;19;20021;-84
2023/01/09 08:37:33;;;;;;;10.30;6.63;;;9.70;65.00;;;8.53;63.27;99426.34;12247716;19;20014;-84
2023/01/09 08:50:16;;;;;;;8.55;6.28;;;9.80;64.90;;;8.53;63.49;99418.53;12247290;19;20078;-84
2023/01/09 08:54:18;;;;;;;9.90;5.90;;;9.90;64.90;;;8.34;63.30;99401.53;12244632;19;20019;-85
2023/01/09 08:58:19;;;;;;;10.07;7.05;;;9.90;64.90;;;8.58;63.50;99438.13;12248364;19;20006;-84
2023/01/09 09:02:22;;;;;;;10.80;7.32;;;9.90;66.00;;;8.63;63.56;99456.84;12253979;19;20501;-86
2023/01/09 09:06:24;;;;;;;8.13;6.57;;;9.90;65.80;;;8.64;63.54;99457.69;12250283;19;20015;-87
2023/01/09 09:10:29;;;;;;;10.55;6.88;;;9.90;65.30;;;8.71;63.50;99461.53;12248327;19;20045;-86
2023/01/09 09:18:52;;;;;;;7.82;6.13;;;10.00;65.60;;;8.79;63.61;99459.25;12248886;19;20039;-84
2023/01/09 09:22:54;;;;;;;7.55;5.68;;;10.00;65.60;;;8.58;63.71;99427.69;12245414;19;20023;-85
2023/01/09 09:26:55;;;;;;;8.10;5.55;;;10.00;65.10;;;8.76;63.47;99449.06;12245979;19;20383;-85
2023/01/09 09:30:57;;;;;;;8.85;6.50;;;10.10;65.20;;;8.82;63.44;99451.22;12244716;19;20015;-86
2023/01/09 09:34:58;;;;;;;9.13;7.25;;;10.10;65.50;;;8.82;63.49;99453.00;12244163;19;20011;-85
2023/01/09 09:39:01;;;;;;;8.57;5.68;;;10.10;65.40;;;8.95;63.48;99466.84;12245662;19;20022;-85
2023/01/09 09:48:24;;;;;;;6.80;5.10;;;10.10;64.80;;;8.96;63.53;99478.91;12248101;19;20477;-85
2023/01/09 09:52:42;;;;;;;6.57;4.88;;;10.20;65.00;;;8.99;63.63;99480.47;12253746;19;20018;-85
2023/01/09 09:56:59;;;;;;;7.60;5.40;;;10.20;64.70;;;8.97;63.67;99482.38;12258843;19;20018;-85
2023/01/09 10:01:01;;;;;;;7.50;5.57;;;10.30;64.80;;;8.92;63.67;99459.25;12257790;19;20089;-85
2023/01/09 10:05:17;;;;;;;7.55;5.15;;;10.30;64.80;;;8.92;63.59;99464.47;12253041;19;20014;-84
2023/01/09 10:09:37;;;;;;;7.20;5.15;;;10.30;64.80;;;9.11;63.61;99477.03;12256120;19;20022;-85
2023/01/09 10:18:16;;;;;;;6.72;5.25;;;10.40;64.90;;;9.19;63.63;99481.72;12257123;19;20022;-85
2023/01/09 10:23:02;;;;;;;6.70;5.25;;;10.40;64.90;;;9.18;63.65;99488.72;12257914;19;20017;-85
2023/01/09 10:27:36;;;;;;;6.53;5.07;;;10.50;65.70;;;9.21;63.71;99487.66;12258157;19;20376;-85
2023/01/09 10:32:21;;;;;;;8.77;5.25;;;10.50;64.90;;;9.25;63.67;99495.13;12257633;19;20017;-85
2023/01/09 10:36:51;;;;;;;9.13;5.43;;;10.50;64.90;;;9.28;63.74;99505.34;12258459;19;20107;-84
2023/01/09 10:41:20;;;;;;;6.68;4.78;;;10.50;64.80;;;9.34;63.65;99508.47;12259529;19;20014;-85
2023/01/09 10:45:31;;;;;;;7.22;5.30;;;10.60;65.00;;;9.38;63.57;99502.13;12251667;19;20481;-84
2023/01/09 10:49:35;;;;;;;6.22;4.90;;;10.60;65.00;;;9.41;63.70;99483.66;12255816;19;20049;-84
2023/01/09 10:53:41;;;;;;;5.78;4.65;;;10.70;65.10;;;9.25;63.69;99471.69;12251888;19;20039;-85
2023/01/09 10:57:49;;;;;;;7.00;5.07;;;10.70;65.10;;;9.48;63.77;99509.19;12254341;19;20030;-85
2023/01/09 11:01:50;;;;;;;5.97;4.90;;;10.70;65.20;;;9.56;63.68;99513.84;12254136;19;20020;-85
2023/01/09 11:05:58;;;;;;;7.00;4.50;;;11.00;65.40;;;9.53;63.91;99509.69;12254882;19;20021;-85
2023/01/09 11:10:06;;;;;;;6.10;4.18;;;10.80;65.30;;;9.65;63.75;99528.84;12254681;19;20129;-85
2023/01/09 11:14:30;;;;;;;5.47;4.13;;;10.90;65.40;;;9.62;63.76;99517.81;12253869;19;20014;-85
2023/01/09 11:18:36;;;;;;;6.65;4.60;;;10.90;65.50;;;9.68;63.86;99523.41;12254066;19;20021;-85
2023/01/09 11:22:53;;;;;;;5.22;4.03;;;11.00;65.50;;;9.75;63.73;99531.63;12253632;19;20039;-85
2023/01/09 11:27:23;;;;;;;4.63;3.70;;;11.00;65.60;;;9.75;63.95;99545.50;12254026;19;20010;-88
2023/01/09 11:31:25;;;;;;;4.60;3.60;;;11.10;65.90;;;9.59;63.97;99513.63;12251559;19;20020;-85
2023/01/09 11:35:31;;;;;;;3.40;3.08;;;11.10;65.80;;;9.84;64.04;99553.59;12244225;19;20061;-85
2023/01/09 11:39:40;;;;;;;2.92;2.60;;;11.10;65.70;;;9.85;63.87;99552.66;12251021;19;20018;-85
2023/01/09 11:43:45;;;;;;;4.53;3.35;;;11.10;65.70;;;9.97;63.89;99572.66;12247833;19;20081;-85
2023/01/09 11:47:46;;;;;;;;;;;11.20;65.90;;;9.95;64.01;99566.72;12254344;19;20018;-85
2023/01/09 11:52:19;;;;;;;2.25;1.92;;;11.20;65.60;;;10.00;63.97;99566.38;12252638;19;19942;-84
2023/01/09 11:56:21;;;;;;;2.45;2.25;;;11.30;65.40;;;9.78;63.80;99517.53;12252344;19;20023;-85
2023/01/09 12:00:27;;;;;;;2.90;2.47;;;11.30;65.20;;;10.07;64.09;99570.19;12251852;19;20100;-85
2023/01/09 12:04:40;;;;;;;2.40;2.20;;;11.30;65.10;;;10.04;63.91;99570.44;12253613;19;20074;-85
2023/01/09 12:09:06;;;;;;;11.13;7.07;;;11.40;65.10;;;10.03;63.82;99574.81;12253091;19;20042;-84
2023/01/09 12:13:55;;;;;;;9.65;6.60;;;11.40;65.00;;;10.12;63.89;99595.00;12245490;19;20480;-84
2023/01/09 12:18:37;;;;;;;4.53;3.50;;;11.30;64.80;;;10.09;63.94;99595.22;12244056;19;20018;-85
2023/01/09 12:23:43;;;;;;;3.05;2.78;;;11.40;64.50;;;10.13;64.01;99609.75;12246639;19;20010;-85
2023/01/09 12:28:16;;;;;;;4.70;2.30;;;11.40;64.40;;;10.13;63.88;99614.97;12250865;19;20715;-84
2023/01/09 12:32:26;;;;;;;3.78;1.83;;;11.40;64.30;;;10.18;63.81;99614.63;12246534;19;20308;-84
2023/01/09 12:37:25;;;;;;;2.15;1.95;;;11.40;64.20;;;10.15;63.88;99610.47;12248943;19;20018;-84
2023/01/09 12:41:53;;;;;;;2.00;1.75;;;11.40;64.10;;;10.15;63.77;99613.06;12248366;19;20338;-85
2023/01/09 12:46:21;;;;;;;1.92;1.77;;;11.40;63.80;;;10.12;63.96;99602.84;12248972;19;20014;-85
2023/01/09 12:51:01;;;;;;;2.70;2.17;;;11.40;63.70;;;10.19;63.97;99609.28;12247188;19;20021;-85
2023/01/09 12:55:19;;;;;;;1.70;1.60;;;11.40;63.90;;;10.27;63.87;99610.53;12242991;19;20020;-85
2023/01/09 12:59:44;;;;;;;1.80;1.70;;;11.50;64.30;;;10.27;63.80;99607.91;12245861;19;20477;-84
2023/01/09 13:03:57;;;;;;;2.25;1.85;;;11.50;64.20;;;10.37;63.88;99622.00;12242128;19;20018;-85
2023/01/09 13:08:00;;;;;;;2.03;1.75;;;11.60;63.80;;;10.27;63.79;99595.72;12248240;19;20371;-84
2023/01/09 13:12:17;;;;;;;2.60;1.42;;;11.60;63.20;;;10.30;63.84;99611.16;12246696;19;20015;-85
2023/01/09 13:16:29;;;;;;;2.78;1.85;;;11.60;62.80;;;10.29;63.71;99613.88;12248346;19;20041;-85
2023/01/09 13:20:35;;;;;;;1.63;1.50;;;11.60;62.80;;;10.32;63.76;99609.28;12245295;19;20473;-85
2023/01/09 13:25:10;;;;;;;2.00;1.70;;;11.60;62.70;;;10.41;63.67;99626.03;12239454;19;20564;-85
2023/01/09 13:29:39;;;;;;;2.05;1.70;;;11.70;62.50;;;10.40;63.66;99620.00;12246047;19;20382;-85
2023/01/09 13:33:51;;;;;;;1.77;1.48;;;11.70;62.50;;;10.44;63.66;99620.59;12242519;19;20022;-85
2023/01/09 13:37:53;;;;;;;2.42;1.70;;;11.70;62.40;;;10.44;63.53;99617.16;12245304;19;20015;-85
2023/01/09 13:46:43;;;;;;;3.38;1.73;;;11.70;62.40;;;10.47;63.71;99625.59;12244108;19;20015;-85
2023/01/09 13:50:46;;;;;;;3.42;1.90;;;11.70;62.20;;;10.51;63.60;99631.44;12244201;19;20011;-84
2023/01/09 13:54:59;;;;;;;2.10;1.75;;;11.80;62.10;;;10.56;63.45;99645.84;12241835;19;20022;-85
2023/01/09 13:59:01;;;;;;;2.47;2.28;;;11.80;61.80;;;10.57;63.52;99655.31;12247473;19;20018;-84
2023/01/09 14:03:28;;;;;;;4.70;1.40;;;11.80;61.60;;;10.49;63.50;99659.44;12240831;19;20018;-85
2023/01/09 14:07:32;;;;;;;3.35;1.73;;;11.80;61.30;;;10.49;63.55;99669.88;12243647;19;20066;-85
2023/01/09 14:11:34;;;;;;;4.53;2.00;;;11.80;61.20;;;10.32;63.38;99650.22;12245601;19;20015;-86
2023/01/09 14:15:43;;;;;;;2.90;1.67;;;11.80;60.80;;;10.43;63.37;99670.31;12240997;19;20055;-85
2023/01/09 14:19:45;;;;;;;7.82;1.88;;;11.80;60.70;;;10.45;63.46;99684.94;12245015;19;20019;-87
2023/01/09 14:24:04;;;;;;;1.92;1.38;;;11.70;60.60;;;10.45;63.36;99699.72;12240965;19;20022;-87
2023/01/09 14:28:21;;;;;;;1.27;1.27;;;11.70;60.60;;;10.48;63.24;99721.25;12244055;19;20014;-89
2023/01/09 14:32:25;;;;;;;2.28;1.67;;;11.70;60.60;;;10.50;63.31;99716.72;12242981;19;20142;-86
2023/01/09 14:36:28;;;;;;;2.90;1.60;;;11.70;61.40;;;10.15;63.17;99678.28;12248328;19;20015;-86
2023/01/09 14:40:32;;;;;;;2.05;1.63;;;11.70;60.60;;;10.19;63.20;99690.16;12256009;19;20014;-86
2023/01/09 14:45:25;;;;;;;5.43;1.88;;;11.70;60.70;;;10.45;63.26;99751.94;12250767;19;20082;-89
2023/01/09 14:49:34;;;;;;;2.55;1.63;;;11.70;60.80;;;10.37;63.38;99739.44;12255022;19;20018;-85
2023/01/09 14:53:38;;;;;;;3.53;2.30;;;11.70;60.70;;;10.43;63.23;99746.84;12251127;19;20014;-85
2023/01/09 14:57:39;;;;;;;2.78;2.40;;;11.60;60.80;;;10.42;63.17;99758.19;12253269;19;20014;-85
2023/01/09 15:01:45;;;;;;;2.78;2.50;;;11.70;61.00;;;10.43;63.24;99759.88;12255293;19;20006;-85
2023/01/09 15:05:50;;;;;;;1.95;1.65;;;11.60;60.90;;;10.39;63.11;99754.03;12257124;19;20018;-88
2023/01/09 15:09:52;;;;;;;1.67;1.57;;;11.60;60.90;;;10.40;63.00;99771.38;12253137;19;20342;-86
2023/01/09 15:13:56;;;;;;;2.53;1.52;;;11.60;60.80;;;10.25;63.16;99751.53;12251035;19;20019;-88
2023/01/09 15:18:02;;;;;;;2.10;1.60;;;11.60;60.90;;;10.31;63.10;99755.50;12251651;19;20010;-88
2023/01/09 15:22:19;;;;;;;1.50;1.38;;;11.60;61.00;;;10.32;63.19;99773.69;12235377;19;20010;-86
2023/01/09 15:26:27;;;;;;;1.85;1.67;;;11.60;61.00;;;10.34;62.93;99781.38;12252468;19;20019;-86
2023/01/09 15:30:33;;;;;;;1.77;1.67;;;11.50;61.70;;;10.25;63.02;99782.00;12252151;19;20377;-86
2023/01/09 15:34:36;;;;;;;2.30;2.10;;;11.50;61.00;;;10.22;63.09;99767.38;12249711;19;20429;-86
2023/01/09 15:38:40;;;;;;;1.92;1.83;;;11.50;61.10;;;10.25;63.15;99789.84;12253457;19;20018;-86
2023/01/09 15:42:59;;;;;;;1.98;1.88;;;11.50;61.00;;;10.12;63.18;99777.63;12247681;19;20492;-86
2023/01/09 15:47:06;;;;;;;1.55;1.45;;;11.50;61.00;;;10.18;63.19;99794.66;12251696;19;20045;-87
2023/01/09 15:51:18;;;;;;;1.88;1.73;;;11.40;61.00;;;10.21;62.97;99807.47;12251119;19;20021;-86
2023/01/09 15:55:33;;;;;;;2.35;2.15;;;11.40;61.10;;;10.24;63.17;99820.31;12248919;19;20504;-86
2023/01/09 15:59:36;;;;;;;2.92;2.45;;;11.40;61.20;;;10.14;63.15;99804.44;12255875;19;20529;-86
2023/01/09 16:03:37;;;;;;;2.63;2.25;;;11.40;61.30;;;10.20;63.05;99824.06;12249971;19;20022;-86
2023/01/09 16:07:48;;;;;;;2.63;2.13;;;11.40;61.30;;;10.15;62.96;99818.31;12254312;19;20078;-85
2023/01/09 16:11:54;;;;;;;2.90;1.95;;;11.30;61.90;;;10.12;63.13;99814.13;12252942;19;20065;-86
2023/01/09 16:15:58;;;;;;;2.50;2.30;;;11.30;61.20;;;9.96;63.06;99792.63;12253152;19;20048;-86
2023/01/09 16:20:23;;;;;;;1.80;1.70;;;11.30;61.30;;;10.13;62.98;99830.66;12253508;19;20021;-86
2023/01/09 16:24:40;;;;;;;2.28;1.80;;;11.30;61.10;;;10.04;63.25;99823.44;12245774;19;20030;-87
2023/01/09 16:28:44;;;;;;;2.03;1.50;;;11.30;61.10;;;9.94;62.89;99810.19;12248053;19;20104;-86
2023/01/09 16:32:50;;;;;;;2.13;1.50;;;11.20;61.10;;;9.94;63.09;99816.22;12251957;19;20039;-86
2023/01/09 16:36:51;;;;;;;1.30;1.20;;;11.20;61.10;;;9.99;63.10;99823.75;12251681;19;20544;-86
2023/01/09 16:45:41;;;;;;;1.83;1.65;;;11.20;61.20;;;10.02;63.01;99840.94;12252344;19;20021;-86
2023/01/09 16:49:42;;;;;;;2.60;1.98;;;11.20;61.10;;;9.91;63.10;99815.59;12243814;19;20042;-86
2023/01/09 16:53:44;;;;;;;3.22;2.60;;;11.20;61.00;;;10.02;62.91;99843.56;12242175;19;20010;-86
2023/01/09 16:57:46;;;;;;;2.63;2.42;;;11.20;60.90;;;9.94;62.96;99841.47;12248527;19;20014;-86
2023/01/09 17:01:48;;;;;;;3.40;2.92;;;11.20;60.80;;;9.96;62.94;99847.41;12249479;19;20025;-86
2023/01/09 17:05:57;;;;;;;3.75;2.72;;;11.10;60.70;;;9.85;63.09;99832.47;12248404;19;20468;-86
2023/01/09 17:09:59;;;;;;;5.35;2.85;;;11.10;61.40;;;9.85;63.08;99839.47;12246797;19;20011;-86
2023/01/09 17:14:02;;;;;;;4.85;3.20;;;11.10;60.50;;;9.94;63.03;99862.34;12244474;19;20015;-86
2023/01/09 17:18:05;;;;;;;5.25;3.50;;;11.10;60.40;;;9.80;63.06;99834.56;12250299;19;20569;-86
2023/01/09 17:22:08;;;;;;;3.53;3.05;;;11.00;60.30;;;9.72;62.81;99823.78;12249703;19;20014;-86
2023/01/09 17:30:40;;;;;;;3.47;2.90;;;11.00;60.20;;;9.75;63.06;99855.72;12247556;19;20025;-87
2023/01/09 17:34:43;;;;;;;2.65;2.45;;;11.00;60.20;;;9.69;62.74;99857.88;12241737;19;20679;-86
2023/01/09 17:38:44;;;;;;;3.47;2.10;;;10.90;60.70;;;9.64;62.84;99858.22;12245853;19;20377;-86
2023/01/09 17:42:46;;;;;;;12.10;7.85;;;10.90;60.00;;;9.67;62.86;99871.03;12247106;19;20119;-87
2023/01/09 17:46:48;;;;;;;15.65;10.13;;;10.80;59.80;;;9.59;62.70;99868.09;12247959;19;20540;-86
2023/01/09 17:50:50;;;;;;;12.32;8.57;;;10.80;59.90;;;9.43;62.67;99860.44;12249516;19;20010;-86
2023/01/09 17:54:51;;;;;;;9.93;7.47;;;10.70;59.90;;;9.44;62.85;99874.28;12244532;19;20010;-86
2023/01/09 17:58:53;;;;;;;7.85;5.50;;;10.60;59.80;;;9.41;62.60;99890.13;12247534;19;20027;-86
2023/01/09 18:02:56;;;;;;;4.75;4.28;;;10.60;59.70;;;9.31;62.63;99893.31;12245082;19;20497;-87
2023/01/09 18:06:57;;;;;;;5.82;4.68;;;10.40;59.60;;;8.96;62.56;99853.03;12245637;19;20042;-86